createdAt,value
2019-06-15T00:00:51.871Z,11.17
2019-06-15T00:03:23.740Z,11.27
2019-06-15T00:05:56.539Z,12.33
2019-06-15T00:08:29.682Z,13.07
2019-06-15T00:11:01.429Z,11.33
2019-06-15T00:13:34.256Z,11.50
2019-06-15T00:16:06.319Z,13.43
2019-06-15T00:18:37.774Z,13.00
2019-06-15T00:21:10.467Z,13.90
2019-06-15T00:23:42.038Z,12.87
2019-06-15T00:26:13.437Z,12.93
2019-06-15T00:28:47.885Z,14.20
2019-06-15T00:31:19.559Z,13.07
2019-06-15T00:33:52.239Z,13.90
2019-06-15T00:36:26.097Z,13.77
2019-06-15T00:38:58.525Z,14.23
2019-06-15T00:41:30.322Z,17.53
2019-06-15T00:44:01.845Z,14.67
2019-06-15T00:46:34.781Z,14.87
2019-06-15T00:49:07.235Z,14.27
2019-06-15T00:51:39.583Z,17.53
2019-06-15T00:54:12.174Z,14.30
2019-06-15T00:56:46.382Z,15.87
2019-06-15T00:59:17.303Z,15.33
2019-06-15T01:01:49.898Z,14.83
2019-06-15T01:04:26.947Z,16.73
2019-06-15T01:06:59.750Z,14.67
2019-06-15T01:09:32.462Z,16.20
2019-06-15T01:12:05.372Z,16.77
2019-06-15T01:14:38.178Z,15.43
2019-06-15T01:17:09.746Z,16.50
2019-06-15T01:19:41.493Z,15.17
2019-06-15T01:22:14.854Z,15.30
2019-06-15T01:24:49.292Z,15.07
2019-06-15T01:27:22.147Z,17.17
2019-06-15T01:29:54.017Z,14.23
2019-06-15T01:32:25.051Z,15.20
2019-06-15T01:34:59.117Z,17.77
2019-06-15T01:37:32.198Z,13.63
2019-06-15T01:40:08.393Z,15.93
2019-06-15T01:42:39.927Z,14.50
2019-06-15T01:45:10.277Z,12.83
2019-06-15T01:47:41.613Z,12.80
2019-06-15T01:50:15.516Z,11.00
2019-06-15T01:52:47.533Z,10.90
2019-06-15T01:55:21.261Z,11.37
2019-06-15T01:57:53.461Z,13.90
2019-06-15T02:00:29.302Z,12.50
2019-06-15T02:03:01.782Z,13.33
2019-06-15T02:05:34.553Z,12.80
2019-06-15T02:08:09.276Z,12.87
2019-06-15T02:10:41.750Z,12.60
2019-06-15T02:13:13.512Z,15.40
2019-06-15T02:15:46.141Z,13.67
2019-06-15T02:18:18.793Z,14.40
2019-06-15T02:20:51.175Z,14.53
2019-06-15T02:23:23.418Z,16.13
2019-06-15T02:25:56.105Z,14.40
2019-06-15T02:28:30.392Z,16.20
2019-06-15T02:31:03.100Z,16.03
2019-06-15T02:33:34.325Z,15.17
2019-06-15T02:36:06.171Z,16.63
2019-06-15T02:38:38.702Z,15.00
2019-06-15T02:41:10.430Z,15.17
2019-06-15T02:43:44.435Z,14.63
2019-06-15T02:46:16.059Z,14.23
2019-06-15T02:48:48.542Z,16.33
2019-06-15T02:51:20.002Z,14.23
2019-06-15T02:53:52.382Z,14.97
2019-06-15T02:56:24.974Z,15.93
2019-06-15T02:58:56.841Z,15.77
2019-06-15T03:01:29.646Z,15.77
2019-06-15T03:04:02.557Z,15.57
2019-06-15T03:06:35.073Z,16.33
2019-06-15T03:09:10.122Z,15.73
2019-06-15T03:11:44.374Z,15.60
2019-06-15T03:14:16.358Z,14.37
2019-06-15T03:16:48.638Z,17.27
2019-06-15T03:19:20.053Z,16.37
2019-06-15T03:21:52.366Z,19.57
2019-06-15T03:24:25.308Z,19.87
2019-06-15T03:26:56.365Z,21.93
2019-06-15T03:29:28.873Z,22.33
2019-06-15T03:32:01.518Z,24.00
2019-06-15T03:34:34.289Z,22.87
2019-06-15T03:37:07.995Z,19.40
2019-06-15T03:39:40.999Z,22.97
2019-06-15T03:42:12.399Z,22.47
2019-06-15T03:44:45.193Z,22.23
2019-06-15T03:47:17.585Z,23.03
2019-06-15T03:49:50.283Z,25.17
2019-06-15T03:52:22.261Z,25.83
2019-06-15T03:54:55.033Z,23.93
2019-06-15T03:57:29.027Z,25.77
2019-06-15T04:00:01.789Z,22.67
2019-06-15T04:02:33.297Z,26.07
2019-06-15T04:05:07.177Z,25.83
2019-06-15T04:07:42.486Z,29.50
2019-06-15T04:10:13.471Z,27.50
2019-06-15T04:12:46.183Z,28.10
2019-06-15T04:15:17.762Z,27.10
2019-06-15T04:17:50.479Z,35.83
2019-06-15T04:20:23.181Z,31.60
2019-06-15T04:22:54.959Z,31.07
2019-06-15T04:25:29.424Z,30.30
2019-06-15T04:28:00.857Z,32.57
2019-06-15T04:30:33.682Z,36.77
2019-06-15T04:33:06.186Z,32.20
2019-06-15T04:35:38.838Z,42.90
2019-06-15T04:38:10.570Z,38.73
2019-06-15T04:40:42.378Z,35.23
2019-06-15T04:43:13.959Z,37.27
2019-06-15T04:45:45.158Z,32.77
2019-06-15T04:48:16.663Z,27.27
2019-06-15T04:50:51.968Z,32.20
2019-06-15T04:53:24.442Z,36.23
2019-06-15T04:55:56.105Z,31.37
2019-06-15T04:58:27.601Z,37.97
2019-06-15T05:00:59.009Z,33.83
2019-06-15T05:03:31.697Z,33.53
2019-06-15T05:06:04.507Z,33.13
2019-06-15T05:08:37.237Z,37.60
2019-06-15T05:11:08.202Z,34.97
2019-06-15T05:13:39.087Z,40.43
2019-06-15T05:16:10.791Z,46.83
2019-06-15T05:18:43.166Z,42.70
2019-06-15T05:21:14.937Z,40.37
2019-06-15T05:23:47.219Z,43.73
2019-06-15T05:26:19.386Z,42.20
2019-06-15T05:28:51.145Z,44.23
2019-06-15T05:31:27.278Z,37.13
2019-06-15T05:33:59.957Z,35.87
2019-06-15T05:36:31.834Z,38.03
2019-06-15T05:39:05.902Z,35.77
2019-06-15T05:41:37.747Z,34.53
2019-06-15T05:44:10.491Z,30.93
2019-06-15T05:46:43.292Z,33.57
2019-06-15T05:49:14.023Z,35.33
2019-06-15T05:51:49.771Z,33.70
2019-06-15T05:54:21.293Z,29.77
2019-06-15T05:56:53.907Z,35.97
2019-06-15T05:59:27.001Z,33.07
2019-06-15T06:01:58.069Z,35.00
2019-06-15T06:04:30.848Z,36.33
2019-06-15T06:07:02.812Z,29.70
2019-06-15T06:09:35.547Z,34.47
2019-06-15T06:12:08.055Z,34.03
2019-06-15T06:14:40.350Z,33.87
2019-06-15T06:17:12.075Z,34.53
2019-06-15T06:19:44.595Z,33.23
2019-06-15T06:22:18.959Z,30.83
2019-06-15T06:24:53.034Z,30.30
2019-06-15T06:27:36.178Z,30.17
2019-06-15T06:29:59.259Z,26.33
2019-06-15T06:32:33.636Z,28.73
2019-06-15T06:35:07.061Z,29.17
2019-06-15T06:37:41.757Z,32.60
2019-06-15T06:40:14.785Z,33.27
2019-06-15T06:42:48.100Z,31.07
2019-06-15T06:45:21.003Z,30.23
2019-06-15T06:47:52.867Z,29.57
2019-06-15T06:50:25.762Z,32.43
2019-06-15T06:52:58.244Z,38.93
2019-06-15T06:55:29.194Z,37.10
2019-06-15T06:58:00.241Z,50.33
2019-06-15T07:00:32.826Z,40.80
2019-06-15T07:03:05.560Z,46.23
2019-06-15T07:05:38.264Z,36.97
2019-06-15T07:08:12.743Z,35.77
2019-06-15T07:10:45.175Z,40.73
2019-06-15T07:13:18.045Z,35.27
2019-06-15T07:15:51.599Z,34.67
2019-06-15T07:18:23.883Z,41.47
2019-06-15T07:20:55.304Z,38.37
2019-06-15T07:23:27.059Z,36.07
2019-06-15T07:25:58.620Z,43.13
2019-06-15T07:28:31.365Z,43.20
2019-06-15T07:31:05.931Z,40.70
2019-06-15T07:33:37.348Z,33.27
2019-06-15T07:36:08.923Z,31.63
2019-06-15T07:38:41.532Z,31.73
2019-06-15T07:41:13.385Z,34.87
2019-06-15T07:43:46.091Z,27.30
2019-06-15T07:46:18.807Z,27.83
2019-06-15T07:48:51.178Z,29.57
2019-06-15T07:51:22.933Z,24.20
2019-06-15T07:53:55.433Z,20.07
2019-06-15T07:56:27.298Z,19.37
2019-06-15T07:58:58.810Z,14.33
2019-06-15T08:01:31.375Z,14.43
2019-06-15T08:04:03.422Z,13.17
2019-06-15T08:06:34.996Z,12.57
2019-06-15T08:09:08.403Z,13.97
2019-06-15T08:11:41.143Z,13.20
2019-06-15T08:14:13.814Z,12.77
2019-06-15T08:16:46.518Z,14.70
2019-06-15T08:19:18.394Z,14.00
2019-06-15T08:21:49.930Z,12.70
2019-06-15T08:24:21.702Z,15.57
2019-06-15T08:26:55.928Z,12.30
2019-06-15T08:29:27.750Z,40.83
2019-06-15T08:32:00.241Z,14.53
2019-06-15T08:34:31.919Z,13.00
2019-06-15T08:37:04.698Z,14.23
2019-06-15T08:39:38.375Z,13.17
2019-06-15T08:42:11.186Z,13.00
2019-06-15T08:44:43.883Z,12.50
2019-06-15T08:47:15.730Z,14.27
2019-06-15T08:49:47.595Z,14.70
2019-06-15T08:52:20.312Z,17.73
2019-06-15T08:54:51.570Z,16.50
2019-06-15T08:57:23.050Z,23.77
2019-06-15T08:59:53.962Z,18.40
2019-06-15T09:02:25.610Z,18.00
2019-06-15T09:05:00.197Z,17.77
2019-06-15T09:07:32.978Z,14.00
2019-06-15T09:10:05.906Z,13.77
2019-06-15T09:12:38.574Z,15.77
2019-06-15T09:15:11.957Z,15.37
2019-06-15T09:17:46.314Z,17.63
2019-06-15T09:20:17.862Z,17.37
2019-06-15T09:22:48.803Z,12.20
2019-06-15T09:25:20.114Z,14.37
2019-06-15T09:27:50.973Z,12.10
2019-06-15T09:30:23.741Z,12.20
2019-06-15T09:32:55.610Z,10.53
2019-06-15T09:35:28.051Z,13.87
2019-06-15T09:37:59.784Z,13.10
2019-06-15T09:40:34.387Z,13.30
2019-06-15T09:43:07.090Z,12.90
2019-06-15T09:45:39.869Z,14.07
2019-06-15T09:48:12.281Z,13.43
2019-06-15T09:50:44.653Z,14.13
2019-06-15T09:53:17.383Z,14.57
2019-06-15T09:55:51.566Z,14.60
2019-06-15T09:58:24.022Z,15.53
2019-06-15T10:00:55.779Z,16.93
2019-06-15T10:03:28.508Z,17.23
2019-06-15T10:06:00.374Z,16.80
2019-06-15T10:08:31.928Z,19.40
2019-06-15T10:11:04.636Z,17.33
2019-06-15T10:13:39.242Z,18.13
2019-06-15T10:16:12.772Z,17.20
2019-06-15T10:18:44.209Z,13.93
2019-06-15T10:21:16.585Z,12.60
2019-06-15T10:23:48.050Z,13.33
2019-06-15T10:26:20.422Z,12.43
2019-06-15T10:28:51.861Z,11.47
2019-06-15T10:31:23.318Z,9.40
2019-06-15T10:33:55.079Z,7.87
2019-06-15T10:36:26.645Z,7.90
2019-06-15T10:38:59.289Z,8.07
2019-06-15T10:41:32.088Z,6.30
2019-06-15T10:44:03.600Z,6.63
2019-06-15T10:46:34.959Z,5.33
2019-06-15T10:49:07.158Z,4.30
2019-06-15T10:51:39.451Z,4.30
2019-06-15T10:54:11.115Z,5.13
2019-06-15T10:56:43.866Z,3.80
2019-06-15T10:59:19.780Z,3.73
2019-06-15T11:01:52.514Z,8.23
2019-06-15T11:04:25.353Z,5.37
2019-06-15T11:06:56.898Z,3.40
2019-06-15T11:09:28.339Z,2.57
2019-06-15T11:12:02.510Z,6.03
2019-06-15T11:14:34.159Z,2.93
2019-06-15T11:17:08.303Z,4.77
2019-06-15T11:19:40.850Z,3.20
2019-06-15T11:22:13.616Z,3.53
2019-06-15T11:24:45.201Z,2.73
2019-06-15T11:27:18.020Z,4.80
2019-06-15T11:29:51.223Z,2.53
2019-06-15T11:32:24.778Z,3.40
2019-06-15T11:34:58.320Z,3.30
2019-06-15T11:37:30.280Z,2.40
2019-06-15T11:40:02.995Z,3.97
2019-06-15T11:42:37.583Z,4.23
2019-06-15T11:45:09.994Z,3.00
2019-06-15T11:47:42.284Z,5.03
2019-06-15T11:50:15.668Z,4.03
2019-06-15T11:52:50.597Z,2.60
2019-06-15T11:55:38.663Z,2.87
2019-06-15T11:57:56.803Z,2.97
2019-06-15T12:00:31.868Z,2.57
2019-06-15T12:03:03.898Z,2.83
2019-06-15T12:05:36.366Z,3.50
2019-06-15T12:08:08.191Z,2.63
2019-06-15T12:10:42.205Z,5.97
2019-06-15T12:13:14.593Z,3.40
2019-06-15T12:15:46.353Z,3.37
2019-06-15T12:18:18.232Z,3.67
2019-06-15T12:20:50.021Z,4.87
2019-06-15T12:23:23.678Z,4.50
2019-06-15T12:25:55.502Z,4.23
2019-06-15T12:28:27.473Z,3.27
2019-06-15T12:31:00.205Z,4.13
2019-06-15T12:33:32.049Z,3.80
2019-06-15T12:36:18.267Z,4.20
2019-06-15T12:38:39.761Z,15.07
2019-06-15T12:41:11.219Z,12.87
2019-06-15T12:43:45.294Z,13.73
2019-06-15T12:46:18.955Z,13.20
2019-06-15T12:48:51.475Z,11.07
2019-06-15T12:51:25.150Z,9.17
2019-06-15T12:53:57.242Z,7.40
2019-06-15T12:56:29.602Z,5.50
2019-06-15T12:59:01.383Z,3.80
2019-06-15T13:01:33.251Z,5.63
2019-06-15T13:04:06.078Z,4.23
2019-06-15T13:06:39.319Z,4.00
2019-06-15T13:09:11.057Z,3.67
2019-06-15T13:11:43.474Z,3.73
2019-06-15T13:14:15.207Z,3.60
2019-06-15T13:16:48.134Z,4.30
2019-06-15T13:19:19.090Z,3.20
2019-06-15T13:21:51.386Z,4.77
2019-06-15T13:24:25.487Z,5.77
2019-06-15T13:26:57.362Z,3.93
2019-06-15T13:29:30.088Z,5.00
2019-06-15T13:32:03.395Z,4.30
2019-06-15T13:34:34.748Z,6.13
2019-06-15T13:37:08.311Z,4.37
2019-06-15T13:39:40.789Z,3.90
2019-06-15T13:42:12.043Z,4.10
2019-06-15T13:44:42.230Z,4.70
2019-06-15T13:47:14.906Z,5.27
2019-06-15T13:49:47.454Z,4.10
2019-06-15T13:52:18.874Z,4.07
2019-06-15T13:54:50.182Z,3.97
2019-06-15T13:57:22.897Z,4.90
2019-06-15T13:59:56.399Z,4.17
2019-06-15T14:02:28.113Z,3.93
2019-06-15T14:05:00.759Z,3.47
2019-06-15T14:07:32.278Z,5.63
2019-06-15T14:10:06.685Z,5.27
2019-06-15T14:12:40.182Z,4.40
2019-06-15T14:15:12.574Z,4.60
2019-06-15T14:17:44.034Z,4.03
2019-06-15T14:20:15.781Z,5.63
2019-06-15T14:22:47.306Z,5.10
2019-06-15T14:25:18.409Z,5.27
2019-06-15T14:27:51.535Z,5.37
2019-06-15T14:30:23.304Z,4.83
2019-06-15T14:32:56.202Z,5.27
2019-06-15T14:35:27.935Z,4.67
2019-06-15T14:38:01.473Z,4.93
2019-06-15T14:40:34.100Z,5.47
2019-06-15T14:43:06.474Z,4.60
2019-06-15T14:45:38.277Z,5.23
2019-06-15T14:48:10.861Z,5.07
2019-06-15T14:50:42.296Z,6.83
2019-06-15T14:53:14.034Z,5.30
2019-06-15T14:55:46.730Z,7.57
2019-06-15T14:58:19.544Z,4.40
2019-06-15T15:00:53.534Z,5.73
2019-06-15T15:03:26.343Z,5.27
2019-06-15T15:05:59.064Z,4.13
2019-06-15T15:08:31.864Z,5.10
2019-06-15T15:11:03.677Z,5.63
2019-06-15T15:13:36.669Z,3.90
2019-06-15T15:16:09.141Z,4.83
2019-06-15T15:18:41.798Z,4.10
2019-06-15T15:21:16.595Z,4.70
2019-06-15T15:23:50.656Z,4.43
2019-06-15T15:26:23.148Z,5.47
2019-06-15T15:28:56.593Z,6.13
2019-06-15T15:31:28.458Z,4.60
2019-06-15T15:34:03.771Z,5.83
2019-06-15T15:36:36.848Z,5.33
2019-06-15T15:39:10.379Z,4.00
2019-06-15T15:41:47.038Z,4.80
2019-06-15T15:44:17.233Z,5.30
2019-06-15T15:46:48.541Z,5.43
2019-06-15T15:49:22.429Z,8.37
2019-06-15T15:51:56.387Z,5.93
2019-06-15T15:54:28.362Z,6.20
2019-06-15T15:57:00.618Z,5.33
2019-06-15T15:59:36.199Z,7.23
2019-06-15T16:02:06.957Z,5.90
2019-06-15T16:04:38.485Z,6.63
2019-06-15T16:07:09.873Z,7.93
2019-06-15T16:09:41.281Z,6.50
2019-06-15T16:12:13.899Z,6.63
2019-06-15T16:14:48.950Z,5.00
2019-06-15T16:17:21.233Z,6.23
2019-06-15T16:19:52.066Z,7.20
2019-06-15T16:22:26.374Z,7.17
2019-06-15T16:24:57.273Z,5.00
2019-06-15T16:27:29.958Z,5.90
2019-06-15T16:30:02.692Z,6.13
2019-06-15T16:32:36.985Z,5.37
2019-06-15T16:35:10.979Z,7.43
2019-06-15T16:37:44.188Z,5.80
2019-06-15T16:40:19.190Z,5.77
2019-06-15T16:42:51.688Z,5.93
2019-06-15T16:45:23.394Z,6.47
2019-06-15T16:47:56.570Z,6.50
2019-06-15T16:50:28.328Z,6.20
2019-06-15T16:53:00.209Z,5.30
2019-06-15T16:55:32.139Z,6.07
2019-06-15T16:58:04.040Z,7.57
2019-06-15T17:00:36.503Z,6.00
2019-06-15T17:03:21.037Z,4.90
2019-06-15T17:05:46.725Z,7.53
2019-06-15T17:08:19.680Z,5.47
2019-06-15T17:10:52.461Z,6.40
2019-06-15T17:13:26.112Z,4.93
2019-06-15T17:15:57.778Z,6.07
2019-06-15T17:18:31.083Z,27.63
2019-06-15T17:21:02.057Z,5.33
2019-06-15T17:23:34.523Z,4.87
2019-06-15T17:26:06.536Z,5.70
2019-06-15T17:28:39.327Z,7.50
2019-06-15T17:31:12.136Z,5.23
2019-06-15T17:33:46.957Z,5.33
2019-06-15T17:36:19.419Z,5.50
2019-06-15T17:38:52.198Z,7.93
2019-06-15T17:41:26.390Z,6.13
2019-06-15T17:43:57.714Z,7.30
2019-06-15T17:46:30.461Z,5.83
2019-06-15T17:49:01.991Z,6.77
2019-06-15T17:51:36.627Z,7.80
2019-06-15T17:54:07.186Z,6.33
2019-06-15T17:56:39.671Z,6.00
2019-06-15T17:59:12.500Z,6.70
2019-06-15T18:01:46.898Z,7.97
2019-06-15T18:04:20.000Z,7.20
2019-06-15T18:06:51.947Z,5.67
2019-06-15T18:09:25.791Z,5.50
2019-06-15T18:11:57.285Z,5.23
2019-06-15T18:14:29.872Z,5.83
2019-06-15T18:17:01.982Z,5.70
2019-06-15T18:19:33.394Z,5.87
2019-06-15T18:22:07.186Z,5.00
2019-06-15T18:24:40.164Z,6.47
2019-06-15T18:27:11.385Z,5.80
2019-06-15T18:29:46.414Z,5.03
2019-06-15T18:32:18.935Z,6.60
2019-06-15T18:34:50.667Z,4.27
2019-06-15T18:37:24.807Z,5.87
2019-06-15T18:39:57.402Z,4.83
2019-06-15T18:42:30.202Z,5.57
2019-06-15T18:45:01.926Z,6.27
2019-06-15T18:47:36.367Z,5.10
2019-06-15T18:50:08.293Z,5.10
2019-06-15T18:52:39.669Z,4.17
2019-06-15T18:55:13.446Z,5.17
2019-06-15T18:57:46.089Z,5.27
2019-06-15T19:00:18.106Z,4.17
2019-06-15T19:02:52.498Z,6.13
2019-06-15T19:05:26.080Z,4.80
2019-06-15T19:07:58.438Z,8.27
2019-06-15T19:10:34.260Z,6.53
2019-06-15T19:13:07.371Z,5.40
2019-06-15T19:15:39.429Z,5.10
2019-06-15T19:18:12.349Z,4.53
2019-06-15T19:20:45.583Z,5.30
2019-06-15T19:23:18.197Z,4.77
2019-06-15T19:25:50.046Z,5.60
2019-06-15T19:28:23.207Z,3.93
2019-06-15T19:30:56.321Z,4.87
2019-06-15T19:33:28.981Z,5.33
2019-06-15T19:36:00.542Z,5.13
2019-06-15T19:38:31.914Z,4.80
2019-06-15T19:41:03.678Z,5.33
2019-06-15T19:43:36.298Z,5.47
2019-06-15T19:46:08.119Z,4.60
2019-06-15T19:48:39.875Z,6.00
2019-06-15T19:51:12.382Z,5.77
2019-06-15T19:53:46.187Z,6.70
2019-06-15T19:56:17.804Z,5.23
2019-06-15T19:58:49.038Z,6.27
2019-06-15T20:01:21.528Z,6.73
2019-06-15T20:03:54.118Z,4.60
2019-06-15T20:06:27.765Z,5.33
2019-06-15T20:08:58.341Z,5.40
2019-06-15T20:11:29.318Z,7.53
2019-06-15T20:13:59.927Z,4.50
2019-06-15T20:16:32.488Z,5.40
2019-06-15T20:19:03.997Z,6.37
2019-06-15T20:21:37.526Z,4.83
2019-06-15T20:24:09.482Z,7.13
2019-06-15T20:26:40.941Z,4.83
2019-06-15T20:29:12.646Z,6.43
2019-06-15T20:31:46.301Z,6.47
2019-06-15T20:34:18.626Z,5.87
2019-06-15T20:36:50.337Z,6.50
2019-06-15T20:39:22.713Z,6.70
2019-06-15T20:41:56.440Z,7.70
2019-06-15T20:44:29.264Z,7.60
2019-06-15T20:47:03.435Z,8.17
2019-06-15T20:49:36.980Z,8.73
2019-06-15T20:52:09.472Z,8.77
2019-06-15T20:54:42.537Z,9.30
2019-06-15T20:57:16.547Z,8.23
2019-06-15T20:59:49.114Z,10.07
2019-06-15T21:02:20.602Z,9.87
2019-06-15T21:04:52.697Z,9.80
2019-06-15T21:07:26.752Z,8.47
2019-06-15T21:09:58.185Z,11.73
2019-06-15T21:12:30.647Z,12.00
2019-06-15T21:15:03.287Z,13.10
2019-06-15T21:17:37.137Z,10.60
2019-06-15T21:20:09.918Z,9.50
2019-06-15T21:22:42.534Z,10.77
2019-06-15T21:25:17.371Z,9.47
2019-06-15T21:27:48.325Z,11.90
2019-06-15T21:30:21.268Z,13.13
2019-06-15T21:32:55.847Z,11.93
2019-06-15T21:35:26.916Z,10.63
2019-06-15T21:37:58.416Z,11.97
2019-06-15T21:40:30.702Z,12.43
2019-06-15T21:43:02.448Z,13.33
2019-06-15T21:45:36.573Z,12.30
2019-06-15T21:48:09.647Z,14.67
2019-06-15T21:50:40.381Z,13.70
2019-06-15T21:53:16.176Z,15.73
2019-06-15T21:55:47.490Z,16.13
2019-06-15T21:58:19.860Z,14.13
2019-06-15T22:01:07.298Z,15.37
2019-06-15T22:03:39.762Z,16.97
2019-06-15T22:06:12.781Z,15.80
2019-06-15T22:08:45.594Z,16.27
2019-06-15T22:11:17.168Z,18.60
2019-06-15T22:13:49.833Z,14.47
2019-06-15T22:16:22.374Z,16.53
2019-06-15T22:18:53.799Z,13.43
2019-06-15T22:21:28.275Z,16.70
2019-06-15T22:24:00.698Z,15.83
2019-06-15T22:26:33.357Z,20.10
2019-06-15T22:29:07.407Z,15.53
2019-06-15T22:31:40.985Z,18.20
2019-06-15T22:34:16.098Z,16.80
2019-06-15T22:36:47.949Z,17.40
2019-06-15T22:39:19.689Z,15.17
2019-06-15T22:41:52.126Z,13.23
2019-06-15T22:44:27.787Z,14.90
2019-06-15T22:46:59.734Z,15.80
2019-06-15T22:49:32.126Z,17.00
2019-06-15T22:52:06.357Z,15.47
2019-06-15T22:54:37.562Z,16.97
2019-06-15T22:57:09.914Z,18.83
2019-06-15T22:59:41.331Z,15.43
2019-06-15T23:02:16.611Z,15.23
2019-06-15T23:04:47.493Z,11.60
2019-06-15T23:07:19.918Z,14.23
2019-06-15T23:09:52.567Z,13.33
2019-06-15T23:12:23.330Z,16.60
2019-06-15T23:14:56.012Z,12.57
2019-06-15T23:17:29.981Z,10.47
2019-06-15T23:20:02.274Z,12.50
2019-06-15T23:22:35.170Z,12.30
2019-06-15T23:25:08.181Z,12.33
2019-06-15T23:27:40.962Z,11.27
2019-06-15T23:30:13.165Z,11.80
2019-06-15T23:32:46.895Z,11.00
2019-06-15T23:35:20.637Z,11.37
2019-06-15T23:37:55.758Z,12.80
2019-06-15T23:40:32.461Z,12.33
2019-06-15T23:43:08.076Z,12.83
2019-06-15T23:45:41.169Z,12.77
2019-06-15T23:48:16.131Z,13.40
2019-06-15T23:50:47.149Z,12.63
2019-06-15T23:53:18.888Z,14.20
2019-06-15T23:55:49.863Z,16.80
2019-06-15T23:58:26.352Z,12.53
